Time;durP1;ratioP1;P1;durP2;ratioP2;P2;SDS_P1;SDS_P2;PMS_P1;PMS_P2;Temp;Humidity;BMP_temperature;BMP_pressure;BME280_temperature;BME280_humidity;BME280_pressure;Samples;Min_cycle;Max_cycle;Signal;HPM_P1;HPM_P2
2023/09/10 00:00:06;;;;;;;26.70;20.60;;;;;;;;;;5123555;27;20051;-56
2023/09/10 00:02:32;;;;;;;23.17;19.67;;;;;;;;;;5126011;27;20055;-59
2023/09/10 00:04:59;;;;;;;22.55;20.20;;;;;;;;;;5123981;27;20478;-59
2023/09/10 00:07:25;;;;;;;21.85;19.75;;;;;;;;;;5118048;27;20143;-58
2023/09/10 00:09:52;;;;;;;22.17;19.65;;;;;;;;;;5122745;27;20075;-57
2023/09/10 00:12:18;;;;;;;21.65;19.55;;;;;;;;;;5124618;27;20078;-59
2023/09/10 00:14:45;;;;;;;24.13;20.17;;;;;;;;;;5122803;27;20059;-55
2023/09/10 00:17:12;;;;;;;22.08;19.70;;;;;;;;;;5122054;27;20087;-53
2023/09/10 00:19:38;;;;;;;23.65;19.65;;;;;;;;;;5123777;27;20510;-58
2023/09/10 00:22:05;;;;;;;26.08;18.88;;;;;;;;;;5124724;27;20109;-57
2023/09/10 00:24:32;;;;;;;22.27;20.02;;;;;;;;;;5123603;27;20059;-57
2023/09/10 00:26:58;;;;;;;21.63;19.27;;;;;;;;;;5123301;27;20548;-56
2023/09/10 00:29:25;;;;;;;21.35;19.05;;;;;;;;;;5124547;27;21002;-56
2023/09/10 00:31:52;;;;;;;24.30;20.77;;;;;;;;;;5122740;27;20465;-58
2023/09/10 00:34:18;;;;;;;23.45;19.73;;;;;;;;;;5123255;27;20051;-59
2023/09/10 00:36:45;;;;;;;21.95;19.90;;;;;;;;;;5123033;27;20558;-59
2023/09/10 00:39:12;;;;;;;23.67;20.20;;;;;;;;;;5122201;27;20074;-58
2023/09/10 00:41:38;;;;;;;21.65;19.30;;;;;;;;;;5123415;27;20525;-59
2023/09/10 00:44:05;;;;;;;22.15;19.55;;;;;;;;;;5123872;27;20047;-59
2023/09/10 00:46:32;;;;;;;22.67;20.27;;;;;;;;;;5122984;27;20051;-58
2023/09/10 00:48:59;;;;;;;22.77;20.40;;;;;;;;;;5122493;27;20134;-60
2023/09/10 00:51:26;;;;;;;22.10;19.77;;;;;;;;;;5122769;27;20083;-59
2023/09/10 00:53:52;;;;;;;23.10;20.70;;;;;;;;;;5123909;27;20059;-61
2023/09/10 00:56:20;;;;;;;22.63;20.25;;;;;;;;;;5124428;27;20048;-60
2023/09/10 00:58:47;;;;;;;22.13;19.83;;;;;;;;;;5122301;27;20051;-60
2023/09/10 01:01:15;;;;;;;25.83;20.20;;;;;;;;;;5123119;27;20047;-59
2023/09/10 01:03:42;;;;;;;28.60;19.73;;;;;;;;;;5122994;27;20676;-57
2023/09/10 01:06:09;;;;;;;23.23;19.65;;;;;;;;;;5123760;27;20055;-59
2023/09/10 01:08:35;;;;;;;23.25;20.15;;;;;;;;;;5123184;27;20144;-56
2023/09/10 01:11:24;;;;;;;23.63;21.23;;;;;;;;;;5122608;27;20109;-58
2023/09/10 01:14:08;;;;;;;23.25;20.77;;;;;;;;;;5077317;27;20161;-59
2023/09/10 01:16:38;;;;;;;22.33;20.23;;;;;;;;;;5125972;27;20591;-57
2023/09/10 01:19:17;;;;;;;24.00;20.17;;;;;;;;;;5128406;27;20058;-59
2023/09/10 01:21:58;;;;;;;22.38;19.85;;;;;;;;;;5127052;27;20127;-59
2023/09/10 01:24:24;;;;;;;23.95;19.85;;;;;;;;;;5127598;27;20068;-60
2023/09/10 01:26:57;;;;;;;23.35;20.63;;;;;;;;;;5126322;27;20097;-59
2023/09/10 01:29:24;;;;;;;23.67;20.23;;;;;;;;;;5123878;27;20047;-58
2023/09/10 01:31:52;;;;;;;23.75;21.33;;;;;;;;;;5126724;27;20048;-58
2023/09/10 01:34:21;;;;;;;25.38;20.65;;;;;;;;;;5126737;27;20107;-59
2023/09/10 01:36:51;;;;;;;23.60;21.20;;;;;;;;;;5126322;27;20051;-59
2023/09/10 01:39:22;;;;;;;23.88;21.38;;;;;;;;;;5126207;27;20140;-59
2023/09/10 01:41:49;;;;;;;23.80;21.30;;;;;;;;;;5125537;27;20554;-57
2023/09/10 01:44:16;;;;;;;23.55;20.25;;;;;;;;;;5123060;27;20059;-59
2023/09/10 01:46:43;;;;;;;26.85;21.95;;;;;;;;;;5127027;27;20055;-58
2023/09/10 01:49:09;;;;;;;23.70;21.35;;;;;;;;;;5126918;27;20059;-59
2023/09/10 01:51:36;;;;;;;24.75;21.75;;;;;;;;;;5125869;27;20051;-57
2023/09/10 01:54:02;;;;;;;25.25;21.77;;;;;;;;;;5128613;27;20146;-58
2023/09/10 01:56:29;;;;;;;26.70;21.50;;;;;;;;;;5125464;27;20058;-59
2023/09/10 01:58:55;;;;;;;23.38;20.88;;;;;;;;;;5122598;27;20055;-58
2023/09/10 02:01:21;;;;;;;26.70;22.35;;;;;;;;;;5126139;27;20048;-59
2023/09/10 02:03:48;;;;;;;25.70;22.77;;;;;;;;;;5126747;27;20121;-59
2023/09/10 02:06:15;;;;;;;26.17;22.33;;;;;;;;;;5125915;27;20082;-58
2023/09/10 02:08:41;;;;;;;25.02;22.10;;;;;;;;;;5126545;27;20546;-59
2023/09/10 02:11:07;;;;;;;26.60;23.95;;;;;;;;;;5126119;27;20959;-59
2023/09/10 02:13:34;;;;;;;26.13;21.98;;;;;;;;;;5121386;27;20151;-59
2023/09/10 02:16:02;;;;;;;25.83;22.67;;;;;;;;;;5126476;27;20051;-59
2023/09/10 02:18:28;;;;;;;24.88;22.10;;;;;;;;;;5125823;27;20062;-59
2023/09/10 02:20:55;;;;;;;25.13;21.58;;;;;;;;;;5106914;27;20325;-60
2023/09/10 02:23:21;;;;;;;25.85;22.38;;;;;;;;;;5124102;27;20048;-59
2023/09/10 02:25:48;;;;;;;24.58;21.75;;;;;;;;;;5125233;27;20090;-58
2023/09/10 02:28:14;;;;;;;25.25;22.55;;;;;;;;;;5125019;27;20055;-54
2023/09/10 02:30:41;;;;;;;24.55;22.08;;;;;;;;;;5124974;27;20187;-59
2023/09/10 02:33:09;;;;;;;25.05;22.35;;;;;;;;;;5125435;27;20047;-59
2023/09/10 02:35:36;;;;;;;24.50;22.05;;;;;;;;;;5124978;27;20051;-58
2023/09/10 02:38:02;;;;;;;25.30;22.23;;;;;;;;;;5126426;27;20087;-59
2023/09/10 02:40:29;;;;;;;25.02;21.95;;;;;;;;;;5124750;27;20559;-58
2023/09/10 02:42:55;;;;;;;26.80;23.65;;;;;;;;;;5123277;27;20079;-59
2023/09/10 02:45:21;;;;;;;24.85;22.35;;;;;;;;;;5125304;27;20056;-59
2023/09/10 02:47:48;;;;;;;24.45;22.00;;;;;;;;;;5132132;27;20051;-57
2023/09/10 02:50:14;;;;;;;25.27;22.45;;;;;;;;;;5122489;27;20532;-59
2023/09/10 02:52:41;;;;;;;23.85;21.45;;;;;;;;;;5124932;27;20445;-60
2023/09/10 02:55:08;;;;;;;25.27;22.17;;;;;;;;;;5127438;27;20140;-60
2023/09/10 02:57:35;;;;;;;24.48;21.88;;;;;;;;;;5125141;27;20142;-57
2023/09/10 03:00:04;;;;;;;23.80;21.40;;;;;;;;;;5124204;27;20052;-55
2023/09/10 03:02:32;;;;;;;24.80;22.13;;;;;;;;;;5125779;27;20048;-59
2023/09/10 03:04:58;;;;;;;26.92;22.95;;;;;;;;;;5124921;27;20664;-59
2023/09/10 03:07:25;;;;;;;29.05;21.77;;;;;;;;;;5124640;27;20047;-59
2023/09/10 03:09:51;;;;;;;26.95;22.02;;;;;;;;;;5124868;27;20174;-57
2023/09/10 03:12:18;;;;;;;24.90;22.15;;;;;;;;;;5118199;27;20048;-59
2023/09/10 03:14:45;;;;;;;24.52;21.73;;;;;;;;;;5123443;27;20845;-58
2023/09/10 03:17:11;;;;;;;24.77;22.17;;;;;;;;;;5124891;27;20134;-58
2023/09/10 03:19:38;;;;;;;25.42;22.73;;;;;;;;;;5125432;27;20052;-58
2023/09/10 03:22:04;;;;;;;30.13;23.05;;;;;;;;;;5123707;27;20574;-60
2023/09/10 03:24:33;;;;;;;24.70;22.05;;;;;;;;;;5124889;27;20052;-56
2023/09/10 03:27:01;;;;;;;24.60;22.17;;;;;;;;;;5124037;27;20055;-59
2023/09/10 03:29:27;;;;;;;25.80;23.10;;;;;;;;;;5125131;27;20057;-57
2023/09/10 03:31:54;;;;;;;24.45;22.10;;;;;;;;;;5123840;27;20119;-59
2023/09/10 03:34:21;;;;;;;25.38;22.67;;;;;;;;;;5123874;27;20052;-59
2023/09/10 03:36:47;;;;;;;26.98;23.90;;;;;;;;;;5107188;27;20167;-58
2023/09/10 03:39:13;;;;;;;25.38;22.67;;;;;;;;;;5123843;27;20051;-59
2023/09/10 03:41:40;;;;;;;26.13;23.30;;;;;;;;;;5123131;27;20100;-59
2023/09/10 03:44:06;;;;;;;25.40;22.70;;;;;;;;;;5120940;27;20056;-58
2023/09/10 03:46:33;;;;;;;25.05;22.30;;;;;;;;;;5117792;27;20087;-56
2023/09/10 03:48:59;;;;;;;29.10;22.42;;;;;;;;;;5123037;27;20137;-56
2023/09/10 03:51:27;;;;;;;25.67;22.92;;;;;;;;;;5124457;27;20822;-59
2023/09/10 03:53:53;;;;;;;25.35;22.67;;;;;;;;;;5123074;27;20124;-59
2023/09/10 03:56:21;;;;;;;26.77;22.80;;;;;;;;;;5096966;27;20521;-56
2023/09/10 03:58:48;;;;;;;25.13;22.50;;;;;;;;;;5126398;27;20055;-58
2023/09/10 04:01:15;;;;;;;25.35;22.65;;;;;;;;;;5124213;27;20051;-56
2023/09/10 04:03:41;;;;;;;25.25;22.58;;;;;;;;;;5123908;27;20147;-59
2023/09/10 04:06:08;;;;;;;26.00;22.77;;;;;;;;;;5115864;27;20578;-58
2023/09/10 04:08:34;;;;;;;24.45;21.85;;;;;;;;;;5122882;27;20480;-58
2023/09/10 04:11:02;;;;;;;25.67;21.55;;;;;;;;;;5123638;27;20056;-59
2023/09/10 04:13:29;;;;;;;25.40;22.60;;;;;;;;;;5123179;27;20574;-59
2023/09/10 04:15:55;;;;;;;27.25;23.00;;;;;;;;;;5123495;27;20166;-59
2023/09/10 04:18:21;;;;;;;32.25;23.42;;;;;;;;;;5123262;27;20489;-57
2023/09/10 04:20:48;;;;;;;26.60;22.50;;;;;;;;;;5123916;27;20059;-58
2023/09/10 04:23:14;;;;;;;27.98;23.20;;;;;;;;;;5123173;27;20606;-59
2023/09/10 04:25:41;;;;;;;25.73;23.05;;;;;;;;;;5117636;27;20051;-59
2023/09/10 04:28:07;;;;;;;27.70;23.40;;;;;;;;;;5123596;27;20538;-59
2023/09/10 04:30:34;;;;;;;27.70;23.52;;;;;;;;;;5123908;27;20116;-59
2023/09/10 04:33:01;;;;;;;24.98;22.27;;;;;;;;;;5125446;27;20052;-58
2023/09/10 04:35:27;;;;;;;25.20;22.70;;;;;;;;;;5122534;27;20598;-59
2023/09/10 04:37:53;;;;;;;24.70;22.17;;;;;;;;;;5121527;27;20751;-58
2023/09/10 04:40:20;;;;;;;26.85;22.58;;;;;;;;;;5123479;27;20065;-60
2023/09/10 04:42:46;;;;;;;25.25;22.65;;;;;;;;;;5123076;27;20044;-55
2023/09/10 04:45:13;;;;;;;25.30;21.67;;;;;;;;;;5124019;27;20494;-58
2023/09/10 04:47:39;;;;;;;28.73;22.58;;;;;;;;;;5122717;27;20561;-59
2023/09/10 04:50:06;;;;;;;24.13;21.77;;;;;;;;;;5122602;27;20383;-57
2023/09/10 04:52:35;;;;;;;24.95;22.35;;;;;;;;;;5121706;27;20105;-59
2023/09/10 04:55:02;;;;;;;25.08;22.38;;;;;;;;;;5127250;27;20309;-57
2023/09/10 04:57:29;;;;;;;24.55;21.98;;;;;;;;;;5122953;27;20545;-59
2023/09/10 04:59:55;;;;;;;23.83;20.50;;;;;;;;;;5104802;27;20044;-58
2023/09/10 05:02:22;;;;;;;25.10;22.30;;;;;;;;;;5127169;27;20055;-57
2023/09/10 05:04:48;;;;;;;25.83;22.90;;;;;;;;;;5120860;27;20083;-56
2023/09/10 05:07:15;;;;;;;26.15;22.45;;;;;;;;;;5121608;27;20526;-60
2023/09/10 05:09:41;;;;;;;25.52;22.75;;;;;;;;;;5122641;27;20055;-56
2023/09/10 05:12:08;;;;;;;24.33;21.92;;;;;;;;;;5120601;27;20051;-52
2023/09/10 05:14:34;;;;;;;24.90;22.08;;;;;;;;;;5122889;27;20056;-56
2023/09/10 05:17:01;;;;;;;24.98;22.23;;;;;;;;;;5123730;27;20091;-54
2023/09/10 05:19:27;;;;;;;28.55;21.13;;;;;;;;;;5122928;27;20055;-51
2023/09/10 05:21:57;;;;;;;25.98;23.15;;;;;;;;;;5122010;27;20048;-51
2023/09/10 05:24:23;;;;;;;25.50;22.50;;;;;;;;;;5128685;27;20055;-55
2023/09/10 05:26:50;;;;;;;27.65;23.50;;;;;;;;;;5123451;27;20052;-54
2023/09/10 05:29:16;;;;;;;35.33;23.15;;;;;;;;;;5123343;27;20056;-52
2023/09/10 05:31:43;;;;;;;24.27;21.83;;;;;;;;;;5124281;27;20055;-54
2023/09/10 05:34:09;;;;;;;24.45;21.85;;;;;;;;;;5123793;27;20066;-53
2023/09/10 05:36:35;;;;;;;24.15;21.55;;;;;;;;;;5126942;27;20062;-55
2023/09/10 05:39:02;;;;;;;25.48;22.88;;;;;;;;;;5125255;27;20056;-54
2023/09/10 05:41:28;;;;;;;23.92;21.38;;;;;;;;;;5121519;27;20156;-51
2023/09/10 05:43:55;;;;;;;28.25;22.15;;;;;;;;;;5115260;27;20151;-51
2023/09/10 05:46:21;;;;;;;24.40;21.80;;;;;;;;;;5118475;27;20055;-54
2023/09/10 05:48:48;;;;;;;25.08;21.10;;;;;;;;;;5125194;27;20108;-55
2023/09/10 05:51:14;;;;;;;24.98;21.75;;;;;;;;;;5122540;27;20067;-55
2023/09/10 05:53:42;;;;;;;23.08;20.65;;;;;;;;;;5120618;27;20044;-53
2023/09/10 05:56:08;;;;;;;25.35;22.55;;;;;;;;;;5122236;27;20487;-51
2023/09/10 05:58:35;;;;;;;26.10;22.42;;;;;;;;;;5121561;27;20076;-51
2023/09/10 06:01:02;;;;;;;25.02;21.63;;;;;;;;;;5121044;27;20150;-54
2023/09/10 06:03:29;;;;;;;23.23;20.77;;;;;;;;;;5124702;27;20498;-58
2023/09/10 06:05:58;;;;;;;26.60;20.63;;;;;;;;;;5123728;27;20494;-38
2023/09/10 06:08:28;;;;;;;22.95;20.52;;;;;;;;;;5124180;27;20485;-69
2023/09/10 06:10:54;;;;;;;26.88;21.95;;;;;;;;;;5125815;27;20083;-59
2023/09/10 06:13:21;;;;;;;23.85;20.45;;;;;;;;;;5125045;27;20501;-57
2023/09/10 06:15:47;;;;;;;23.30;20.65;;;;;;;;;;5125897;27;20055;-59
2023/09/10 06:18:14;;;;;;;22.95;20.08;;;;;;;;;;5108110;27;20056;-59
2023/09/10 06:20:40;;;;;;;23.38;20.05;;;;;;;;;;5125410;27;20047;-59
2023/09/10 06:23:07;;;;;;;27.23;19.83;;;;;;;;;;5127675;27;20039;-59
2023/09/10 06:25:33;;;;;;;22.15;19.95;;;;;;;;;;5128290;27;20153;-59
2023/09/10 06:28:01;;;;;;;25.38;19.63;;;;;;;;;;5128612;27;20552;-59
2023/09/10 06:30:27;;;;;;;22.42;20.15;;;;;;;;;;5128993;27;20052;-59
2023/09/10 06:32:53;;;;;;;20.77;18.70;;;;;;;;;;5126312;27;20071;-57
2023/09/10 06:35:20;;;;;;;21.23;19.02;;;;;;;;;;5124685;27;20079;-59
2023/09/10 06:37:47;;;;;;;21.77;19.23;;;;;;;;;;5122608;27;20134;-58
2023/09/10 06:40:14;;;;;;;21.95;19.67;;;;;;;;;;5125185;27;20063;-59
2023/09/10 06:42:41;;;;;;;36.95;21.65;;;;;;;;;;5107342;27;20051;-58
2023/09/10 06:45:08;;;;;;;22.67;19.50;;;;;;;;;;5124950;27;20044;-59
2023/09/10 06:47:34;;;;;;;23.70;19.35;;;;;;;;;;5125541;27;20075;-59
2023/09/10 06:50:01;;;;;;;22.52;20.10;;;;;;;;;;5125756;27;20059;-59
2023/09/10 06:52:27;;;;;;;23.63;20.23;;;;;;;;;;5126393;27;20117;-58
2023/09/10 06:54:54;;;;;;;23.60;18.67;;;;;;;;;;5124308;27;20150;-58
2023/09/10 06:57:23;;;;;;;28.38;20.42;;;;;;;;;;5109168;27;20074;-59
2023/09/10 06:59:49;;;;;;;25.63;20.27;;;;;;;;;;5117518;27;20587;-56
2023/09/10 07:02:16;;;;;;;19.17;17.13;;;;;;;;;;5125172;27;20039;-57
2023/09/10 07:04:47;;;;;;;21.55;19.02;;;;;;;;;;5119429;27;20067;-59
2023/09/10 07:07:14;;;;;;;22.30;19.33;;;;;;;;;;5124896;27;20547;-57
2023/09/10 07:09:41;;;;;;;22.77;19.10;;;;;;;;;;5125872;27;20055;-59
2023/09/10 07:12:07;;;;;;;22.23;20.02;;;;;;;;;;5122961;27;20104;-59
2023/09/10 07:14:34;;;;;;;20.52;18.45;;;;;;;;;;5124937;27;20097;-59
2023/09/10 07:17:01;;;;;;;21.50;18.38;;;;;;;;;;5124982;27;20539;-58
2023/09/10 07:19:27;;;;;;;21.42;19.08;;;;;;;;;;5106478;27;20052;-60
2023/09/10 07:21:54;;;;;;;23.33;19.10;;;;;;;;;;5106259;27;20921;-58
2023/09/10 07:24:20;;;;;;;20.83;18.60;;;;;;;;;;5124785;27;20528;-57
2023/09/10 07:26:47;;;;;;;22.30;19.52;;;;;;;;;;5124949;27;20047;-58
2023/09/10 07:29:16;;;;;;;24.45;20.35;;;;;;;;;;5123191;27;20055;-58
2023/09/10 07:31:43;;;;;;;24.13;20.77;;;;;;;;;;5124267;27;20063;-57
2023/09/10 07:34:09;;;;;;;27.15;20.90;;;;;;;;;;5125004;27;20555;-54
2023/09/10 07:36:38;;;;;;;21.60;19.33;;;;;;;;;;5124742;27;20448;-58
2023/09/10 07:39:04;;;;;;;27.75;20.75;;;;;;;;;;5125009;27;20070;-58
2023/09/10 07:41:32;;;;;;;26.77;21.98;;;;;;;;;;5124680;27;20055;-59
2023/09/10 07:43:59;;;;;;;23.58;20.83;;;;;;;;;;5124027;27;20052;-59
2023/09/10 07:46:26;;;;;;;25.65;20.05;;;;;;;;;;5124518;27;20075;-59
2023/09/10 07:48:52;;;;;;;24.02;21.45;;;;;;;;;;5123908;27;20499;-58
2023/09/10 07:51:19;;;;;;;26.77;21.75;;;;;;;;;;5124533;27;20052;-59
2023/09/10 07:53:45;;;;;;;24.30;19.92;;;;;;;;;;5124391;27;20055;-58
2023/09/10 07:56:12;;;;;;;28.65;23.10;;;;;;;;;;5125344;27;20050;-58
2023/09/10 07:58:38;;;;;;;25.05;22.55;;;;;;;;;;5124653;27;20101;-58
2023/09/10 08:01:06;;;;;;;42.85;23.88;;;;;;;;;;5123201;27;20056;-58
2023/09/10 08:03:34;;;;;;;30.25;23.83;;;;;;;;;;5106100;27;20061;-57
2023/09/10 08:06:01;;;;;;;24.60;22.13;;;;;;;;;;5123829;27;20142;-60
2023/09/10 08:08:27;;;;;;;27.73;24.90;;;;;;;;;;5120597;27;20062;-55
2023/09/10 08:10:54;;;;;;;26.25;23.58;;;;;;;;;;5119772;27;20047;-61
2023/09/10 08:13:20;;;;;;;31.05;25.40;;;;;;;;;;5121338;27;20506;-60
2023/09/10 08:15:47;;;;;;;27.75;23.35;;;;;;;;;;5123438;27;20101;-60
2023/09/10 08:18:13;;;;;;;28.95;25.95;;;;;;;;;;5119613;27;20059;-60
2023/09/10 08:20:41;;;;;;;31.70;26.42;;;;;;;;;;5122307;27;20058;-59
2023/09/10 08:23:08;;;;;;;30.02;26.05;;;;;;;;;;5110959;27;20444;-59
2023/09/10 08:25:35;;;;;;;30.55;25.73;;;;;;;;;;5105037;27;20087;-59
2023/09/10 08:28:02;;;;;;;29.83;25.65;;;;;;;;;;5113760;27;20048;-59
2023/09/10 08:30:30;;;;;;;28.98;25.30;;;;;;;;;;5122349;27;20054;-59
2023/09/10 08:32:56;;;;;;;34.35;26.58;;;;;;;;;;5116333;27;20043;-54
2023/09/10 08:35:23;;;;;;;32.47;28.50;;;;;;;;;;5121667;27;20083;-58
2023/09/10 08:37:49;;;;;;;30.50;26.92;;;;;;;;;;5118228;27;20074;-59
2023/09/10 08:40:16;;;;;;;30.85;27.55;;;;;;;;;;5123909;27;20130;-59
2023/09/10 08:42:43;;;;;;;33.08;27.65;;;;;;;;;;5122624;27;20048;-59
2023/09/10 08:45:10;;;;;;;32.00;28.27;;;;;;;;;;5119938;27;20048;-58
2023/09/10 08:47:40;;;;;;;39.85;28.33;;;;;;;;;;5115234;27;20134;-59
2023/09/10 08:50:07;;;;;;;32.67;28.13;;;;;;;;;;5118071;27;20055;-56
2023/09/10 08:52:36;;;;;;;35.65;26.98;;;;;;;;;;5117809;27;20055;-58
2023/09/10 08:55:03;;;;;;;33.17;27.75;;;;;;;;;;5122777;27;20524;-59
2023/09/10 08:57:30;;;;;;;32.47;27.73;;;;;;;;;;5119972;27;20105;-59
2023/09/10 08:59:57;;;;;;;35.35;25.42;;;;;;;;;;5094254;27;20521;-57
2023/09/10 09:02:24;;;;;;;36.97;28.48;;;;;;;;;;5123366;27;20056;-58
2023/09/10 09:04:50;;;;;;;40.58;29.27;;;;;;;;;;5122663;27;20154;-59
2023/09/10 09:07:19;;;;;;;34.60;28.10;;;;;;;;;;5120592;27;20086;-58
2023/09/10 09:09:47;;;;;;;33.08;25.48;;;;;;;;;;5118480;27;20097;-59
2023/09/10 09:12:14;;;;;;;35.63;27.63;;;;;;;;;;5123011;27;20043;-58
2023/09/10 09:14:42;;;;;;;31.65;25.88;;;;;;;;;;5116639;27;20158;-58
2023/09/10 09:17:14;;;;;;;35.42;25.40;;;;;;;;;;5122543;27;20129;-58
2023/09/10 09:19:43;;;;;;;33.83;24.90;;;;;;;;;;5116003;27;20128;-59
2023/09/10 09:22:11;;;;;;;33.67;24.85;;;;;;;;;;5122915;27;20060;-59
2023/09/10 09:24:37;;;;;;;28.05;24.05;;;;;;;;;;5119906;27;20506;-59
2023/09/10 09:27:04;;;;;;;31.90;21.52;;;;;;;;;;5117765;27;20114;-58
2023/09/10 09:29:31;;;;;;;30.60;22.85;;;;;;;;;;5121039;27;20449;-59
2023/09/10 09:31:57;;;;;;;26.13;21.17;;;;;;;;;;5122825;27;20052;-59
2023/09/10 09:34:24;;;;;;;27.05;21.20;;;;;;;;;;5124393;27;20063;-59
2023/09/10 09:36:51;;;;;;;29.20;20.55;;;;;;;;;;5123900;27;20058;-57
2023/09/10 09:39:20;;;;;;;25.90;20.10;;;;;;;;;;5123836;27;20058;-59
2023/09/10 09:41:49;;;;;;;29.20;21.58;;;;;;;;;;5116844;27;20055;-62
2023/09/10 09:44:16;;;;;;;24.05;18.98;;;;;;;;;;5113041;27;20183;-60
2023/09/10 09:46:42;;;;;;;23.30;19.42;;;;;;;;;;5114080;27;20062;-60
2023/09/10 09:49:09;;;;;;;25.80;20.17;;;;;;;;;;5113614;27;20062;-61
2023/09/10 09:51:37;;;;;;;26.33;19.98;;;;;;;;;;5120506;27;20051;-57
2023/09/10 09:54:06;;;;;;;24.27;19.02;;;;;;;;;;5124850;27;20630;-61
2023/09/10 09:56:32;;;;;;;26.75;18.88;;;;;;;;;;5113648;27;20604;-60
2023/09/10 09:58:59;;;;;;;24.08;19.05;;;;;;;;;;5110551;27;20052;-59
2023/09/10 10:01:25;;;;;;;25.13;18.92;;;;;;;;;;5118428;27;20056;-62
2023/09/10 10:03:52;;;;;;;24.60;19.50;;;;;;;;;;5125523;27;20146;-61
2023/09/10 10:06:19;;;;;;;31.30;19.30;;;;;;;;;;5126085;27;20051;-56
2023/09/10 10:08:49;;;;;;;24.17;17.90;;;;;;;;;;5120589;27;20128;-61
2023/09/10 10:11:17;;;;;;;23.55;17.80;;;;;;;;;;5120566;27;20056;-61
2023/09/10 10:13:44;;;;;;;20.83;16.40;;;;;;;;;;5123992;27;20908;-62
2023/09/10 10:16:11;;;;;;;28.45;19.15;;;;;;;;;;5124972;27;20071;-61
2023/09/10 10:18:37;;;;;;;21.55;16.55;;;;;;;;;;5120388;27;20047;-61
2023/09/10 10:21:05;;;;;;;24.83;17.90;;;;;;;;;;5121794;27;20127;-61
2023/09/10 10:23:32;;;;;;;26.55;18.27;;;;;;;;;;5124763;27;20063;-61
2023/09/10 10:26:05;;;;;;;21.38;17.23;;;;;;;;;;5123764;27;20051;-61
2023/09/10 10:28:33;;;;;;;23.98;18.33;;;;;;;;;;5115010;27;20541;-62
2023/09/10 10:31:06;;;;;;;25.23;17.77;;;;;;;;;;5104536;27;20051;-62
2023/09/10 10:33:33;;;;;;;25.02;16.38;;;;;;;;;;5099413;27;20087;-58
2023/09/10 10:36:07;;;;;;;22.05;17.15;;;;;;;;;;5113506;27;20434;-59
2023/09/10 10:38:36;;;;;;;25.30;16.38;;;;;;;;;;5123156;27;20138;-60
2023/09/10 10:41:04;;;;;;;24.25;16.48;;;;;;;;;;5125553;27;20062;-61
2023/09/10 10:43:36;;;;;;;19.17;15.27;;;;;;;;;;5107532;27;20059;-58
2023/09/10 10:46:04;;;;;;;20.27;14.10;;;;;;;;;;5125432;27;20533;-60
2023/09/10 10:48:36;;;;;;;19.42;13.02;;;;;;;;;;5126555;27;20155;-59
2023/09/10 10:51:06;;;;;;;18.42;13.80;;;;;;;;;;5132924;27;20059;-59
2023/09/10 10:53:34;;;;;;;18.58;14.30;;;;;;;;;;5120430;27;20577;-59
2023/09/10 10:56:03;;;;;;;20.15;12.07;;;;;;;;;;5125033;27;20048;-60
2023/09/10 10:58:31;;;;;;;18.83;12.07;;;;;;;;;;5116568;27;20522;-59
2023/09/10 11:00:58;;;;;;;19.02;11.07;;;;;;;;;;5116871;27;20058;-58
2023/09/10 11:03:25;;;;;;;14.88;10.52;;;;;;;;;;5123744;27;20062;-59
2023/09/10 11:05:54;;;;;;;15.15;10.57;;;;;;;;;;5119224;27;20060;-58
2023/09/10 11:08:28;;;;;;;13.48;10.30;;;;;;;;;;5115813;27;20055;-58
2023/09/10 11:10:55;;;;;;;15.63;10.38;;;;;;;;;;5124858;27;20062;-57
2023/09/10 11:13:24;;;;;;;14.45;10.32;;;;;;;;;;5117500;27;20905;-57
2023/09/10 11:16:14;;;;;;;12.98;9.68;;;;;;;;;;5122843;27;20052;-56
2023/09/10 11:18:41;;;;;;;17.33;10.25;;;;;;;;;;5115281;27;20094;-59
2023/09/10 11:21:09;;;;;;;15.15;9.55;;;;;;;;;;5123494;27;20128;-56
2023/09/10 11:23:39;;;;;;;14.30;9.82;;;;;;;;;;5122160;27;20055;-55
2023/09/10 11:26:12;;;;;;;15.88;9.95;;;;;;;;;;5119341;27;20048;-58
2023/09/10 11:28:43;;;;;;;13.35;10.38;;;;;;;;;;5117287;27;20052;-59
2023/09/10 11:31:28;;;;;;;17.27;9.75;;;;;;;;;;5123670;27;20054;-58
2023/09/10 11:34:00;;;;;;;;;;;;;;;;;;5122616;27;20047;-58
2023/09/10 11:36:27;;;;;;;18.35;9.95;;;;;;;;;;5120292;27;42226;-58
2023/09/10 11:38:54;;;;;;;13.55;8.88;;;;;;;;;;5120459;27;20044;-58
2023/09/10 11:41:21;;;;;;;19.63;10.35;;;;;;;;;;5122871;27;20513;-58
2023/09/10 11:43:50;;;;;;;17.70;9.63;;;;;;;;;;5118585;27;20047;-58
2023/09/10 11:46:16;;;;;;;16.27;8.93;;;;;;;;;;5123540;27;20052;-56
2023/09/10 11:48:44;;;;;;;13.75;8.25;;;;;;;;;;5123713;27;20078;-58
2023/09/10 11:51:10;;;;;;;11.45;8.50;;;;;;;;;;5119263;27;20060;-58
2023/09/10 11:53:37;;;;;;;14.00;8.88;;;;;;;;;;5124375;27;20056;-59
2023/09/10 11:56:03;;;;;;;16.08;8.15;;;;;;;;;;5118928;27;20052;-58
2023/09/10 11:58:30;;;;;;;10.27;7.68;;;;;;;;;;5116488;27;20048;-59
2023/09/10 12:00:57;;;;;;;16.30;8.73;;;;;;;;;;5122416;27;20052;-58
2023/09/10 12:03:24;;;;;;;11.02;7.07;;;;;;;;;;5123641;27;20052;-58
2023/09/10 12:05:51;;;;;;;13.95;8.05;;;;;;;;;;5121226;27;20127;-59
2023/09/10 12:08:18;;;;;;;16.13;8.63;;;;;;;;;;5118580;27;20128;-58
2023/09/10 12:10:44;;;;;;;17.13;7.82;;;;;;;;;;5119723;27;20051;-57
2023/09/10 12:13:11;;;;;;;10.77;7.80;;;;;;;;;;5123863;27;20110;-58
2023/09/10 12:15:37;;;;;;;10.38;7.05;;;;;;;;;;5117556;27;20105;-58
2023/09/10 12:18:05;;;;;;;10.43;6.25;;;;;;;;;;5120499;27;20058;-57
2023/09/10 12:20:33;;;;;;;10.30;5.97;;;;;;;;;;5120146;27;20095;-59
2023/09/10 12:23:00;;;;;;;11.00;6.20;;;;;;;;;;5125623;27;20058;-58
2023/09/10 12:25:27;;;;;;;9.80;5.65;;;;;;;;;;5115671;27;20591;-58
2023/09/10 12:27:54;;;;;;;14.48;8.73;;;;;;;;;;5120565;27;20063;-58
2023/09/10 12:30:21;;;;;;;11.98;7.10;;;;;;;;;;5117902;27;20472;-59
2023/09/10 12:32:52;;;;;;;9.90;6.40;;;;;;;;;;5113507;27;20048;-55
2023/09/10 12:35:19;;;;;;;11.23;6.05;;;;;;;;;;5118912;27;20040;-57
2023/09/10 12:37:50;;;;;;;10.18;6.80;;;;;;;;;;5125840;27;20058;-58
2023/09/10 12:40:18;;;;;;;13.55;5.47;;;;;;;;;;5126461;27;20100;-58
2023/09/10 12:42:45;;;;;;;14.95;5.63;;;;;;;;;;5125598;27;20065;-55
2023/09/10 12:45:11;;;;;;;11.30;6.63;;;;;;;;;;5125393;27;20155;-58
2023/09/10 12:47:38;;;;;;;10.55;6.75;;;;;;;;;;5125641;27;20093;-57
2023/09/10 12:50:05;;;;;;;10.05;6.05;;;;;;;;;;5128333;27;20059;-58
2023/09/10 12:52:32;;;;;;;9.93;5.47;;;;;;;;;;5126564;27;20139;-59
2023/09/10 12:55:00;;;;;;;14.13;6.10;;;;;;;;;;5122376;27;20174;-59
2023/09/10 12:57:28;;;;;;;8.02;5.90;;;;;;;;;;5117762;27;20536;-60
2023/09/10 12:59:55;;;;;;;14.88;5.68;;;;;;;;;;5123118;27;20051;-58
2023/09/10 13:02:29;;;;;;;8.52;5.50;;;;;;;;;;5124853;27;20056;-58
2023/09/10 13:04:56;;;;;;;9.77;6.00;;;;;;;;;;5121968;27;20190;-58
2023/09/10 13:07:22;;;;;;;7.90;5.38;;;;;;;;;;5102389;27;20489;-56
2023/09/10 13:09:49;;;;;;;10.20;5.70;;;;;;;;;;5124440;27;20051;-57
2023/09/10 13:12:15;;;;;;;7.88;4.88;;;;;;;;;;5130667;27;20044;-58
2023/09/10 13:14:42;;;;;;;11.35;5.40;;;;;;;;;;5110334;27;20091;-58
2023/09/10 13:17:09;;;;;;;9.82;4.95;;;;;;;;;;5110183;27;20578;-58
2023/09/10 13:19:37;;;;;;;10.40;5.10;;;;;;;;;;5122400;27;20056;-59
2023/09/10 13:22:06;;;;;;;8.60;5.22;;;;;;;;;;5126965;27;20506;-58
2023/09/10 13:24:32;;;;;;;6.57;4.65;;;;;;;;;;5129204;27;20516;-58
2023/09/10 13:26:58;;;;;;;8.52;4.65;;;;;;;;;;5123718;27;20139;-58
2023/09/10 13:29:25;;;;;;;7.90;4.72;;;;;;;;;;5126812;27;20585;-56
2023/09/10 13:31:52;;;;;;;7.93;5.05;;;;;;;;;;5128165;27;20522;-58
2023/09/10 13:34:18;;;;;;;16.08;5.20;;;;;;;;;;5128670;27;20063;-56
2023/09/10 13:36:44;;;;;;;7.50;4.60;;;;;;;;;;5127968;27;20077;-57
2023/09/10 13:39:12;;;;;;;10.48;5.30;;;;;;;;;;5124415;27;20105;-57
2023/09/10 13:41:38;;;;;;;12.10;5.10;;;;;;;;;;5128204;27;20055;-58
2023/09/10 13:44:05;;;;;;;10.70;5.78;;;;;;;;;;5128787;27;20058;-57
2023/09/10 13:46:31;;;;;;;11.40;5.80;;;;;;;;;;5127709;27;20058;-58
2023/09/10 13:48:58;;;;;;;10.98;5.00;;;;;;;;;;5126829;27;20607;-58
2023/09/10 13:51:24;;;;;;;11.63;5.05;;;;;;;;;;5124584;27;20532;-58
2023/09/10 13:53:51;;;;;;;9.10;5.28;;;;;;;;;;5126060;27;20058;-59
2023/09/10 13:56:17;;;;;;;11.18;5.57;;;;;;;;;;5124731;27;20047;-57
2023/09/10 13:58:44;;;;;;;9.25;5.53;;;;;;;;;;5124734;27;20050;-55
2023/09/10 14:01:10;;;;;;;10.73;5.35;;;;;;;;;;5121404;27;20105;-59
2023/09/10 14:03:37;;;;;;;7.78;5.47;;;;;;;;;;5125956;27;20552;-56
2023/09/10 14:06:07;;;;;;;10.68;5.75;;;;;;;;;;5126589;27;20091;-58
2023/09/10 14:08:35;;;;;;;8.00;5.03;;;;;;;;;;5122013;27;20073;-58
2023/09/10 14:11:03;;;;;;;10.77;5.25;;;;;;;;;;5122562;27;20077;-57
2023/09/10 14:13:30;;;;;;;9.40;5.95;;;;;;;;;;5123560;27;20536;-58
2023/09/10 14:15:56;;;;;;;12.95;4.97;;;;;;;;;;5125345;27;20055;-57
2023/09/10 14:18:23;;;;;;;8.50;5.05;;;;;;;;;;5125754;27;20489;-59
2023/09/10 14:20:49;;;;;;;12.85;5.43;;;;;;;;;;5126091;27;20092;-58